sensor_id;sensor_type;location;lat;lon;timestamp;P1;durP1;ratioP1;P2;durP2;ratioP2
2872;SDS011;1444;49.166;7.312;2023-07-02T00:01:54;53.77;;;17.03;;
2872;SDS011;1444;49.166;7.312;2023-07-02T00:04:23;48.30;;;15.43;;
2872;SDS011;1444;49.166;7.312;2023-07-02T00:06:49;51.80;;;17.17;;
2872;SDS011;1444;49.166;7.312;2023-07-02T00:09:16;47.07;;;14.40;;
2872;SDS011;1444;49.166;7.312;2023-07-02T00:11:43;26.03;;;11.17;;
2872;SDS011;1444;49.166;7.312;2023-07-02T00:14:11;41.53;;;14.47;;
2872;SDS011;1444;49.166;7.312;2023-07-02T00:16:41;40.37;;;13.10;;
2872;SDS011;1444;49.166;7.312;2023-07-02T00:19:09;40.03;;;13.17;;
2872;SDS011;1444;49.166;7.312;2023-07-02T00:21:37;31.23;;;13.13;;
2872;SDS011;1444;49.166;7.312;2023-07-02T00:24:05;45.60;;;15.77;;
2872;SDS011;1444;49.166;7.312;2023-07-02T00:26:35;38.37;;;13.93;;
2872;SDS011;1444;49.166;7.312;2023-07-02T00:29:03;51.77;;;15.37;;
2872;SDS011;1444;49.166;7.312;2023-07-02T00:31:31;36.30;;;14.10;;
2872;SDS011;1444;49.166;7.312;2023-07-02T00:33:58;67.13;;;17.57;;
2872;SDS011;1444;49.166;7.312;2023-07-02T00:36:26;53.97;;;12.80;;
2872;SDS011;1444;49.166;7.312;2023-07-02T00:38:54;54.20;;;16.80;;
2872;SDS011;1444;49.166;7.312;2023-07-02T00:41:21;37.20;;;13.43;;
2872;SDS011;1444;49.166;7.312;2023-07-02T00:43:48;30.57;;;11.57;;
2872;SDS011;1444;49.166;7.312;2023-07-02T00:46:19;33.67;;;12.10;;
2872;SDS011;1444;49.166;7.312;2023-07-02T00:48:48;28.43;;;10.77;;
2872;SDS011;1444;49.166;7.312;2023-07-02T00:51:16;43.57;;;14.23;;
2872;SDS011;1444;49.166;7.312;2023-07-02T00:53:44;21.50;;;9.57;;
2872;SDS011;1444;49.166;7.312;2023-07-02T00:56:14;25.43;;;10.60;;
2872;SDS011;1444;49.166;7.312;2023-07-02T00:58:42;29.73;;;11.00;;
2872;SDS011;1444;49.166;7.312;2023-07-02T01:01:12;50.97;;;14.73;;
2872;SDS011;1444;49.166;7.312;2023-07-02T01:03:39;29.43;;;10.73;;
2872;SDS011;1444;49.166;7.312;2023-07-02T01:06:17;28.40;;;10.37;;
2872;SDS011;1444;49.166;7.312;2023-07-02T01:08:47;24.10;;;9.20;;
2872;SDS011;1444;49.166;7.312;2023-07-02T01:11:15;32.87;;;10.73;;
2872;SDS011;1444;49.166;7.312;2023-07-02T01:13:42;26.77;;;9.47;;
2872;SDS011;1444;49.166;7.312;2023-07-02T01:16:09;44.20;;;13.30;;
2872;SDS011;1444;49.166;7.312;2023-07-02T01:18:36;33.53;;;10.83;;
2872;SDS011;1444;49.166;7.312;2023-07-02T01:21:05;37.67;;;12.37;;
2872;SDS011;1444;49.166;7.312;2023-07-02T01:23:32;27.03;;;9.33;;
2872;SDS011;1444;49.166;7.312;2023-07-02T01:26:00;53.70;;;16.73;;
2872;SDS011;1444;49.166;7.312;2023-07-02T01:28:33;27.80;;;9.83;;
2872;SDS011;1444;49.166;7.312;2023-07-02T01:31:01;49.23;;;15.13;;
2872;SDS011;1444;49.166;7.312;2023-07-02T01:33:29;45.77;;;14.43;;
2872;SDS011;1444;49.166;7.312;2023-07-02T01:35:56;58.57;;;17.93;;
2872;SDS011;1444;49.166;7.312;2023-07-02T01:38:24;52.60;;;13.43;;
2872;SDS011;1444;49.166;7.312;2023-07-02T01:40:52;54.33;;;20.70;;
2872;SDS011;1444;49.166;7.312;2023-07-02T01:43:19;47.47;;;19.50;;
2872;SDS011;1444;49.166;7.312;2023-07-02T01:45:45;55.03;;;23.10;;
2872;SDS011;1444;49.166;7.312;2023-07-02T01:48:12;43.20;;;21.37;;
2872;SDS011;1444;49.166;7.312;2023-07-02T01:50:39;46.63;;;21.00;;
2872;SDS011;1444;49.166;7.312;2023-07-02T01:53:06;47.87;;;19.93;;
2872;SDS011;1444;49.166;7.312;2023-07-02T01:55:34;49.73;;;21.53;;
2872;SDS011;1444;49.166;7.312;2023-07-02T01:58:01;58.73;;;21.90;;
2872;SDS011;1444;49.166;7.312;2023-07-02T02:00:27;48.47;;;18.20;;
2872;SDS011;1444;49.166;7.312;2023-07-02T02:02:54;61.03;;;21.70;;
2872;SDS011;1444;49.166;7.312;2023-07-02T02:05:21;47.07;;;17.07;;
2872;SDS011;1444;49.166;7.312;2023-07-02T02:07:48;37.27;;;13.97;;
2872;SDS011;1444;49.166;7.312;2023-07-02T02:10:15;25.43;;;12.03;;
2872;SDS011;1444;49.166;7.312;2023-07-02T02:12:43;31.70;;;13.80;;
2872;SDS011;1444;49.166;7.312;2023-07-02T02:15:10;36.07;;;12.80;;
2872;SDS011;1444;49.166;7.312;2023-07-02T02:17:39;31.80;;;14.30;;
2872;SDS011;1444;49.166;7.312;2023-07-02T02:20:06;44.23;;;15.70;;
2872;SDS011;1444;49.166;7.312;2023-07-02T02:22:34;34.40;;;12.37;;
2872;SDS011;1444;49.166;7.312;2023-07-02T02:25:01;51.30;;;17.60;;
2872;SDS011;1444;49.166;7.312;2023-07-02T02:27:28;34.57;;;13.63;;
2872;SDS011;1444;49.166;7.312;2023-07-02T02:29:56;55.83;;;16.93;;
2872;SDS011;1444;49.166;7.312;2023-07-02T02:32:23;42.70;;;13.27;;
2872;SDS011;1444;49.166;7.312;2023-07-02T02:34:50;42.57;;;14.67;;
2872;SDS011;1444;49.166;7.312;2023-07-02T02:37:18;30.33;;;11.67;;
2872;SDS011;1444;49.166;7.312;2023-07-02T02:39:44;30.57;;;12.37;;
2872;SDS011;1444;49.166;7.312;2023-07-02T02:45:11;29.10;;;10.43;;
2872;SDS011;1444;49.166;7.312;2023-07-02T02:47:38;55.83;;;11.20;;
2872;SDS011;1444;49.166;7.312;2023-07-02T02:50:05;45.80;;;15.60;;
2872;SDS011;1444;49.166;7.312;2023-07-02T02:52:34;20.90;;;8.50;;
2872;SDS011;1444;49.166;7.312;2023-07-02T02:55:01;41.07;;;14.03;;
2872;SDS011;1444;49.166;7.312;2023-07-02T02:57:28;34.17;;;12.07;;
2872;SDS011;1444;49.166;7.312;2023-07-02T02:59:55;49.60;;;15.90;;
2872;SDS011;1444;49.166;7.312;2023-07-02T03:02:23;20.90;;;8.20;;
2872;SDS011;1444;49.166;7.312;2023-07-02T03:04:50;33.40;;;10.03;;
2872;SDS011;1444;49.166;7.312;2023-07-02T03:07:17;41.60;;;11.87;;
2872;SDS011;1444;49.166;7.312;2023-07-02T03:09:43;41.43;;;11.03;;
2872;SDS011;1444;49.166;7.312;2023-07-02T03:12:10;28.40;;;10.50;;
2872;SDS011;1444;49.166;7.312;2023-07-02T03:14:37;27.33;;;10.43;;
2872;SDS011;1444;49.166;7.312;2023-07-02T03:17:04;44.30;;;13.60;;
2872;SDS011;1444;49.166;7.312;2023-07-02T03:19:32;39.17;;;13.87;;
2872;SDS011;1444;49.166;7.312;2023-07-02T03:21:59;52.90;;;16.73;;
2872;SDS011;1444;49.166;7.312;2023-07-02T03:24:25;47.63;;;12.40;;
2872;SDS011;1444;49.166;7.312;2023-07-02T03:26:52;61.67;;;18.10;;
2872;SDS011;1444;49.166;7.312;2023-07-02T03:29:19;40.20;;;13.80;;
2872;SDS011;1444;49.166;7.312;2023-07-02T03:31:46;25.87;;;10.60;;
2872;SDS011;1444;49.166;7.312;2023-07-02T03:34:13;33.27;;;12.40;;
2872;SDS011;1444;49.166;7.312;2023-07-02T03:36:41;32.40;;;11.20;;
2872;SDS011;1444;49.166;7.312;2023-07-02T03:39:09;37.20;;;13.07;;
2872;SDS011;1444;49.166;7.312;2023-07-02T03:41:36;30.13;;;11.47;;
2872;SDS011;1444;49.166;7.312;2023-07-02T03:44:03;45.47;;;15.43;;
2872;SDS011;1444;49.166;7.312;2023-07-02T03:46:30;30.50;;;11.30;;
2872;SDS011;1444;49.166;7.312;2023-07-02T03:48:56;61.33;;;18.50;;
2872;SDS011;1444;49.166;7.312;2023-07-02T03:51:23;33.37;;;13.33;;
2872;SDS011;1444;49.166;7.312;2023-07-02T03:53:51;42.57;;;12.63;;
2872;SDS011;1444;49.166;7.312;2023-07-02T03:56:18;33.87;;;11.47;;
2872;SDS011;1444;49.166;7.312;2023-07-02T03:58:45;29.23;;;10.93;;
2872;SDS011;1444;49.166;7.312;2023-07-02T04:01:12;37.93;;;12.13;;
2872;SDS011;1444;49.166;7.312;2023-07-02T04:03:40;26.60;;;10.70;;
2872;SDS011;1444;49.166;7.312;2023-07-02T04:06:08;37.93;;;13.40;;
2872;SDS011;1444;49.166;7.312;2023-07-02T04:08:35;28.73;;;10.27;;
2872;SDS011;1444;49.166;7.312;2023-07-02T04:11:03;55.50;;;17.80;;
2872;SDS011;1444;49.166;7.312;2023-07-02T04:13:30;44.43;;;12.97;;
2872;SDS011;1444;49.166;7.312;2023-07-02T04:15:57;60.53;;;17.10;;
2872;SDS011;1444;49.166;7.312;2023-07-02T04:18:24;28.63;;;10.97;;
2872;SDS011;1444;49.166;7.312;2023-07-02T04:20:51;37.70;;;11.97;;
2872;SDS011;1444;49.166;7.312;2023-07-02T04:23:18;35.90;;;11.87;;
2872;SDS011;1444;49.166;7.312;2023-07-02T04:25:44;30.40;;;11.33;;
2872;SDS011;1444;49.166;7.312;2023-07-02T04:28:13;31.30;;;12.30;;
2872;SDS011;1444;49.166;7.312;2023-07-02T04:30:39;29.17;;;10.03;;
2872;SDS011;1444;49.166;7.312;2023-07-02T04:33:07;47.23;;;14.80;;
2872;SDS011;1444;49.166;7.312;2023-07-02T04:35:34;37.43;;;13.80;;
2872;SDS011;1444;49.166;7.312;2023-07-02T04:38:01;37.73;;;12.33;;
2872;SDS011;1444;49.166;7.312;2023-07-02T04:40:28;34.37;;;11.60;;
2872;SDS011;1444;49.166;7.312;2023-07-02T04:42:55;49.87;;;15.30;;
2872;SDS011;1444;49.166;7.312;2023-07-02T04:45:25;41.57;;;13.23;;
2872;SDS011;1444;49.166;7.312;2023-07-02T04:48:01;49.60;;;16.03;;
2872;SDS011;1444;49.166;7.312;2023-07-02T04:50:28;37.83;;;13.37;;
2872;SDS011;1444;49.166;7.312;2023-07-02T04:52:55;41.63;;;14.23;;
2872;SDS011;1444;49.166;7.312;2023-07-02T04:55:22;40.17;;;14.70;;
2872;SDS011;1444;49.166;7.312;2023-07-02T04:57:49;28.00;;;13.00;;
2872;SDS011;1444;49.166;7.312;2023-07-02T05:00:16;37.73;;;15.93;;
2872;SDS011;1444;49.166;7.312;2023-07-02T05:02:45;31.50;;;12.77;;
2872;SDS011;1444;49.166;7.312;2023-07-02T05:05:12;48.93;;;17.83;;
2872;SDS011;1444;49.166;7.312;2023-07-02T05:07:40;39.43;;;16.63;;
2872;SDS011;1444;49.166;7.312;2023-07-02T05:10:07;50.33;;;18.37;;
2872;SDS011;1444;49.166;7.312;2023-07-02T05:12:34;36.60;;;16.53;;
2872;SDS011;1444;49.166;7.312;2023-07-02T05:15:01;63.83;;;21.27;;
2872;SDS011;1444;49.166;7.312;2023-07-02T05:17:28;44.53;;;17.10;;
2872;SDS011;1444;49.166;7.312;2023-07-02T05:19:56;62.00;;;22.37;;
2872;SDS011;1444;49.166;7.312;2023-07-02T05:22:23;35.43;;;16.27;;
2872;SDS011;1444;49.166;7.312;2023-07-02T05:24:49;51.17;;;17.90;;
2872;SDS011;1444;49.166;7.312;2023-07-02T05:27:16;45.37;;;17.50;;
2872;SDS011;1444;49.166;7.312;2023-07-02T05:29:43;46.07;;;18.30;;
2872;SDS011;1444;49.166;7.312;2023-07-02T05:32:10;55.30;;;19.80;;
2872;SDS011;1444;49.166;7.312;2023-07-02T05:34:37;47.60;;;20.33;;
2872;SDS011;1444;49.166;7.312;2023-07-02T05:37:05;60.13;;;22.20;;
2872;SDS011;1444;49.166;7.312;2023-07-02T05:39:33;67.93;;;24.13;;
2872;SDS011;1444;49.166;7.312;2023-07-02T05:42:00;61.07;;;22.40;;
2872;SDS011;1444;49.166;7.312;2023-07-02T05:44:26;41.80;;;18.60;;
2872;SDS011;1444;49.166;7.312;2023-07-02T05:46:53;74.40;;;25.37;;
2872;SDS011;1444;49.166;7.312;2023-07-02T05:49:20;64.13;;;23.80;;
2872;SDS011;1444;49.166;7.312;2023-07-02T05:51:47;50.70;;;21.77;;
2872;SDS011;1444;49.166;7.312;2023-07-02T05:54:16;56.83;;;22.13;;
2872;SDS011;1444;49.166;7.312;2023-07-02T05:56:43;56.07;;;23.37;;
2872;SDS011;1444;49.166;7.312;2023-07-02T05:59:09;70.90;;;25.67;;
2872;SDS011;1444;49.166;7.312;2023-07-02T06:01:39;49.00;;;22.77;;
2872;SDS011;1444;49.166;7.312;2023-07-02T06:04:06;72.90;;;26.27;;
2872;SDS011;1444;49.166;7.312;2023-07-02T06:06:33;51.57;;;24.80;;
2872;SDS011;1444;49.166;7.312;2023-07-02T06:09:00;68.77;;;26.30;;
2872;SDS011;1444;49.166;7.312;2023-07-02T06:11:29;63.97;;;25.27;;
2872;SDS011;1444;49.166;7.312;2023-07-02T06:13:56;77.03;;;29.47;;
2872;SDS011;1444;49.166;7.312;2023-07-02T06:16:23;60.33;;;25.60;;
2872;SDS011;1444;49.166;7.312;2023-07-02T06:18:50;66.17;;;25.30;;
2872;SDS011;1444;49.166;7.312;2023-07-02T06:21:17;69.97;;;29.30;;
2872;SDS011;1444;49.166;7.312;2023-07-02T06:23:44;57.03;;;24.00;;
2872;SDS011;1444;49.166;7.312;2023-07-02T06:26:11;60.03;;;26.87;;
2872;SDS011;1444;49.166;7.312;2023-07-02T06:28:40;59.57;;;24.87;;
2872;SDS011;1444;49.166;7.312;2023-07-02T06:31:07;75.83;;;27.23;;
2872;SDS011;1444;49.166;7.312;2023-07-02T06:33:34;60.33;;;24.50;;
2872;SDS011;1444;49.166;7.312;2023-07-02T06:36:04;73.10;;;26.93;;
2872;SDS011;1444;49.166;7.312;2023-07-02T06:38:31;60.37;;;24.80;;
2872;SDS011;1444;49.166;7.312;2023-07-02T06:40:58;96.13;;;31.27;;
2872;SDS011;1444;49.166;7.312;2023-07-02T06:43:25;72.53;;;27.43;;
2872;SDS011;1444;49.166;7.312;2023-07-02T06:45:53;77.03;;;29.77;;
2872;SDS011;1444;49.166;7.312;2023-07-02T06:48:20;58.33;;;24.87;;
2872;SDS011;1444;49.166;7.312;2023-07-02T06:50:47;77.00;;;32.30;;
2872;SDS011;1444;49.166;7.312;2023-07-02T06:53:14;55.40;;;25.10;;
2872;SDS011;1444;49.166;7.312;2023-07-02T06:55:41;65.73;;;27.97;;
2872;SDS011;1444;49.166;7.312;2023-07-02T06:58:08;68.70;;;27.47;;
2872;SDS011;1444;49.166;7.312;2023-07-02T07:00:35;74.97;;;29.80;;
2872;SDS011;1444;49.166;7.312;2023-07-02T07:03:03;80.10;;;28.93;;
2872;SDS011;1444;49.166;7.312;2023-07-02T07:05:30;62.10;;;29.20;;
2872;SDS011;1444;49.166;7.312;2023-07-02T07:07:58;89.70;;;32.63;;
2872;SDS011;1444;49.166;7.312;2023-07-02T07:10:25;61.03;;;28.10;;
2872;SDS011;1444;49.166;7.312;2023-07-02T07:12:52;88.57;;;32.93;;
2872;SDS011;1444;49.166;7.312;2023-07-02T07:15:19;62.40;;;27.93;;
2872;SDS011;1444;49.166;7.312;2023-07-02T07:17:46;60.87;;;27.20;;
2872;SDS011;1444;49.166;7.312;2023-07-02T07:20:15;73.03;;;28.10;;
2872;SDS011;1444;49.166;7.312;2023-07-02T07:22:42;56.47;;;25.10;;
2872;SDS011;1444;49.166;7.312;2023-07-02T07:25:08;59.20;;;25.73;;
2872;SDS011;1444;49.166;7.312;2023-07-02T07:27:35;56.27;;;24.60;;
2872;SDS011;1444;49.166;7.312;2023-07-02T07:30:03;98.40;;;34.07;;
2872;SDS011;1444;49.166;7.312;2023-07-02T07:32:30;71.53;;;29.50;;
2872;SDS011;1444;49.166;7.312;2023-07-02T07:34:57;73.23;;;30.00;;
2872;SDS011;1444;49.166;7.312;2023-07-02T07:37:25;63.93;;;26.87;;
2872;SDS011;1444;49.166;7.312;2023-07-02T07:39:52;77.40;;;32.93;;
2872;SDS011;1444;49.166;7.312;2023-07-02T07:42:19;63.87;;;27.50;;
2872;SDS011;1444;49.166;7.312;2023-07-02T07:44:45;72.60;;;28.90;;
2872;SDS011;1444;49.166;7.312;2023-07-02T07:47:12;61.53;;;28.27;;
2872;SDS011;1444;49.166;7.312;2023-07-02T07:49:39;69.33;;;29.73;;
2872;SDS011;1444;49.166;7.312;2023-07-02T07:52:06;80.20;;;30.53;;
2872;SDS011;1444;49.166;7.312;2023-07-02T07:54:35;70.60;;;29.80;;
2872;SDS011;1444;49.166;7.312;2023-07-02T07:57:02;84.77;;;34.03;;
2872;SDS011;1444;49.166;7.312;2023-07-02T07:59:29;67.43;;;30.53;;
2872;SDS011;1444;49.166;7.312;2023-07-02T08:01:56;97.00;;;35.27;;
2872;SDS011;1444;49.166;7.312;2023-07-02T08:04:23;68.40;;;29.00;;
2872;SDS011;1444;49.166;7.312;2023-07-02T08:06:50;70.67;;;27.90;;
2872;SDS011;1444;49.166;7.312;2023-07-02T08:09:17;64.97;;;29.23;;
2872;SDS011;1444;49.166;7.312;2023-07-02T08:11:45;75.03;;;29.97;;
2872;SDS011;1444;49.166;7.312;2023-07-02T08:14:12;59.53;;;27.20;;
2872;SDS011;1444;49.166;7.312;2023-07-02T08:16:39;57.63;;;29.90;;
2872;SDS011;1444;49.166;7.312;2023-07-02T08:19:06;70.70;;;30.97;;
2872;SDS011;1444;49.166;7.312;2023-07-02T08:21:33;69.77;;;31.27;;
2872;SDS011;1444;49.166;7.312;2023-07-02T08:24:00;76.17;;;30.10;;
2872;SDS011;1444;49.166;7.312;2023-07-02T08:26:27;75.60;;;33.30;;
2872;SDS011;1444;49.166;7.312;2023-07-02T08:28:55;63.13;;;28.87;;
2872;SDS011;1444;49.166;7.312;2023-07-02T08:31:22;75.43;;;30.90;;
2872;SDS011;1444;49.166;7.312;2023-07-02T08:33:49;54.90;;;25.17;;
2872;SDS011;1444;49.166;7.312;2023-07-02T08:36:15;70.07;;;28.80;;
2872;SDS011;1444;49.166;7.312;2023-07-02T08:38:42;60.63;;;28.27;;
2872;SDS011;1444;49.166;7.312;2023-07-02T08:41:09;67.53;;;28.93;;
2872;SDS011;1444;49.166;7.312;2023-07-02T08:43:36;66.33;;;29.23;;
2872;SDS011;1444;49.166;7.312;2023-07-02T08:46:04;88.80;;;34.10;;
2872;SDS011;1444;49.166;7.312;2023-07-02T08:48:32;70.20;;;31.33;;
2872;SDS011;1444;49.166;7.312;2023-07-02T08:50:59;88.60;;;33.20;;
2872;SDS011;1444;49.166;7.312;2023-07-02T08:53:26;68.40;;;30.40;;
2872;SDS011;1444;49.166;7.312;2023-07-02T08:55:58;89.93;;;33.40;;
2872;SDS011;1444;49.166;7.312;2023-07-02T08:58:26;68.83;;;28.23;;
2872;SDS011;1444;49.166;7.312;2023-07-02T09:03:37;65.30;;;26.57;;
2872;SDS011;1444;49.166;7.312;2023-07-02T09:06:04;77.43;;;28.83;;
2872;SDS011;1444;49.166;7.312;2023-07-02T09:08:31;62.20;;;27.93;;
2872;SDS011;1444;49.166;7.312;2023-07-02T09:11:08;72.67;;;30.00;;
2872;SDS011;1444;49.166;7.312;2023-07-02T09:13:43;64.27;;;28.47;;
2872;SDS011;1444;49.166;7.312;2023-07-02T09:16:21;71.13;;;30.63;;
2872;SDS011;1444;49.166;7.312;2023-07-02T09:18:58;66.80;;;27.80;;
2872;SDS011;1444;49.166;7.312;2023-07-02T09:21:26;76.60;;;27.17;;
2872;SDS011;1444;49.166;7.312;2023-07-02T09:23:54;78.03;;;30.00;;
2872;SDS011;1444;49.166;7.312;2023-07-02T09:26:22;70.37;;;27.70;;
2872;SDS011;1444;49.166;7.312;2023-07-02T09:28:49;61.30;;;27.87;;
2872;SDS011;1444;49.166;7.312;2023-07-02T09:31:16;52.87;;;25.30;;
2872;SDS011;1444;49.166;7.312;2023-07-02T09:33:44;54.93;;;27.47;;
2872;SDS011;1444;49.166;7.312;2023-07-02T09:36:11;66.33;;;29.20;;
2872;SDS011;1444;49.166;7.312;2023-07-02T09:38:39;55.83;;;26.93;;
2872;SDS011;1444;49.166;7.312;2023-07-02T09:41:06;68.00;;;30.07;;
2872;SDS011;1444;49.166;7.312;2023-07-02T09:43:34;54.63;;;27.73;;
2872;SDS011;1444;49.166;7.312;2023-07-02T09:46:01;94.30;;;34.73;;
2872;SDS011;1444;49.166;7.312;2023-07-02T09:48:29;65.73;;;28.23;;
2872;SDS011;1444;49.166;7.312;2023-07-02T09:51:09;64.77;;;26.57;;
2872;SDS011;1444;49.166;7.312;2023-07-02T09:53:36;53.73;;;26.10;;
2872;SDS011;1444;49.166;7.312;2023-07-02T09:56:03;70.87;;;30.03;;
2872;SDS011;1444;49.166;7.312;2023-07-02T09:58:30;46.00;;;21.67;;
2872;SDS011;1444;49.166;7.312;2023-07-02T10:00:57;66.43;;;27.90;;
2872;SDS011;1444;49.166;7.312;2023-07-02T10:03:28;51.03;;;26.77;;
2872;SDS011;1444;49.166;7.312;2023-07-02T10:06:02;81.40;;;32.23;;
2872;SDS011;1444;49.166;7.312;2023-07-02T10:08:31;47.13;;;24.03;;
2872;SDS011;1444;49.166;7.312;2023-07-02T10:11:10;74.17;;;30.20;;
2872;SDS011;1444;49.166;7.312;2023-07-02T10:13:39;49.87;;;23.93;;
2872;SDS011;1444;49.166;7.312;2023-07-02T10:16:06;60.60;;;27.07;;
2872;SDS011;1444;49.166;7.312;2023-07-02T10:18:33;55.07;;;25.83;;
2872;SDS011;1444;49.166;7.312;2023-07-02T10:21:00;70.97;;;30.50;;
2872;SDS011;1444;49.166;7.312;2023-07-02T10:23:40;59.57;;;26.80;;
2872;SDS011;1444;49.166;7.312;2023-07-02T10:26:12;54.40;;;28.03;;
2872;SDS011;1444;49.166;7.312;2023-07-02T10:28:40;53.07;;;23.30;;
2872;SDS011;1444;49.166;7.312;2023-07-02T10:31:17;63.37;;;29.17;;
2872;SDS011;1444;49.166;7.312;2023-07-02T10:33:45;47.73;;;22.60;;
2872;SDS011;1444;49.166;7.312;2023-07-02T10:36:19;51.43;;;25.37;;
2872;SDS011;1444;49.166;7.312;2023-07-02T10:38:48;57.50;;;26.30;;
2872;SDS011;1444;49.166;7.312;2023-07-02T10:41:24;48.20;;;25.50;;
2872;SDS011;1444;49.166;7.312;2023-07-02T10:43:53;63.83;;;28.93;;
2872;SDS011;1444;49.166;7.312;2023-07-02T10:46:21;48.90;;;21.57;;
2872;SDS011;1444;49.166;7.312;2023-07-02T10:48:51;47.10;;;23.57;;
2872;SDS011;1444;49.166;7.312;2023-07-02T10:51:19;59.00;;;27.03;;
2872;SDS011;1444;49.166;7.312;2023-07-02T10:53:47;42.57;;;24.60;;
2872;SDS011;1444;49.166;7.312;2023-07-02T10:56:23;54.10;;;27.20;;
2872;SDS011;1444;49.166;7.312;2023-07-02T10:58:50;60.73;;;29.40;;
2872;SDS011;1444;49.166;7.312;2023-07-02T11:01:21;51.50;;;25.33;;
2872;SDS011;1444;49.166;7.312;2023-07-02T11:03:55;52.93;;;25.40;;
2872;SDS011;1444;49.166;7.312;2023-07-02T11:06:23;57.17;;;25.40;;
2872;SDS011;1444;49.166;7.312;2023-07-02T11:08:51;53.70;;;27.30;;
2872;SDS011;1444;49.166;7.312;2023-07-02T11:11:19;63.30;;;27.60;;
2872;SDS011;1444;49.166;7.312;2023-07-02T11:13:48;54.00;;;25.20;;
2872;SDS011;1444;49.166;7.312;2023-07-02T11:16:22;59.17;;;28.03;;
2872;SDS011;1444;49.166;7.312;2023-07-02T11:18:51;64.60;;;29.20;;
2872;SDS011;1444;49.166;7.312;2023-07-02T11:21:19;51.57;;;26.63;;
2872;SDS011;1444;49.166;7.312;2023-07-02T11:23:46;43.53;;;23.83;;
2872;SDS011;1444;49.166;7.312;2023-07-02T11:26:14;50.23;;;24.23;;
2872;SDS011;1444;49.166;7.312;2023-07-02T11:28:48;53.00;;;25.77;;
2872;SDS011;1444;49.166;7.312;2023-07-02T11:31:24;46.77;;;25.07;;
2872;SDS011;1444;49.166;7.312;2023-07-02T11:33:52;63.50;;;28.87;;
2872;SDS011;1444;49.166;7.312;2023-07-02T11:36:19;55.87;;;26.07;;
2872;SDS011;1444;49.166;7.312;2023-07-02T11:38:48;49.43;;;24.47;;
2872;SDS011;1444;49.166;7.312;2023-07-02T11:41:17;55.77;;;25.63;;
2872;SDS011;1444;49.166;7.312;2023-07-02T11:43:45;59.47;;;28.57;;
2872;SDS011;1444;49.166;7.312;2023-07-02T11:46:13;57.87;;;26.93;;
2872;SDS011;1444;49.166;7.312;2023-07-02T11:48:40;42.30;;;24.47;;
2872;SDS011;1444;49.166;7.312;2023-07-02T11:51:06;72.63;;;29.97;;
2872;SDS011;1444;49.166;7.312;2023-07-02T11:53:33;59.87;;;26.80;;
2872;SDS011;1444;49.166;7.312;2023-07-02T11:56:00;66.40;;;27.33;;
2872;SDS011;1444;49.166;7.312;2023-07-02T11:58:28;59.57;;;26.83;;
2872;SDS011;1444;49.166;7.312;2023-07-02T12:00:55;62.30;;;29.23;;
2872;SDS011;1444;49.166;7.312;2023-07-02T12:03:22;47.47;;;23.40;;
2872;SDS011;1444;49.166;7.312;2023-07-02T12:05:49;43.03;;;23.37;;
2872;SDS011;1444;49.166;7.312;2023-07-02T12:08:16;51.40;;;23.53;;
2872;SDS011;1444;49.166;7.312;2023-07-02T12:10:43;50.83;;;24.00;;
2872;SDS011;1444;49.166;7.312;2023-07-02T12:13:10;55.87;;;26.20;;
2872;SDS011;1444;49.166;7.312;2023-07-02T12:15:38;46.53;;;23.77;;
2872;SDS011;1444;49.166;7.312;2023-07-02T12:18:05;58.47;;;27.57;;
2872;SDS011;1444;49.166;7.312;2023-07-02T12:20:32;64.10;;;28.27;;
2872;SDS011;1444;49.166;7.312;2023-07-02T12:22:59;69.87;;;27.33;;
2872;SDS011;1444;49.166;7.312;2023-07-02T12:25:26;51.93;;;25.30;;
2872;SDS011;1444;49.166;7.312;2023-07-02T12:27:53;76.10;;;30.93;;
2872;SDS011;1444;49.166;7.312;2023-07-02T12:30:20;59.90;;;25.97;;
2872;SDS011;1444;49.166;7.312;2023-07-02T12:32:48;47.67;;;24.47;;
2872;SDS011;1444;49.166;7.312;2023-07-02T12:35:15;48.57;;;24.80;;
2872;SDS011;1444;49.166;7.312;2023-07-02T12:37:44;42.10;;;23.13;;
2872;SDS011;1444;49.166;7.312;2023-07-02T12:40:12;59.20;;;27.37;;
2872;SDS011;1444;49.166;7.312;2023-07-02T12:42:40;52.50;;;26.37;;
2872;SDS011;1444;49.166;7.312;2023-07-02T12:45:08;59.23;;;25.93;;
2872;SDS011;1444;49.166;7.312;2023-07-02T12:47:36;61.33;;;26.53;;
2872;SDS011;1444;49.166;7.312;2023-07-02T12:50:05;77.03;;;31.50;;
2872;SDS011;1444;49.166;7.312;2023-07-02T12:52:32;45.23;;;22.53;;
2872;SDS011;1444;49.166;7.312;2023-07-02T12:54:59;76.77;;;32.90;;
2872;SDS011;1444;49.166;7.312;2023-07-02T12:57:26;60.30;;;26.80;;
2872;SDS011;1444;49.166;7.312;2023-07-02T12:59:54;74.50;;;30.17;;
2872;SDS011;1444;49.166;7.312;2023-07-02T13:02:21;58.23;;;26.33;;
2872;SDS011;1444;49.166;7.312;2023-07-02T13:04:48;53.40;;;25.00;;
2872;SDS011;1444;49.166;7.312;2023-07-02T13:07:16;55.23;;;24.07;;
2872;SDS011;1444;49.166;7.312;2023-07-02T13:09:43;43.77;;;23.37;;
2872;SDS011;1444;49.166;7.312;2023-07-02T13:12:10;51.73;;;24.70;;
2872;SDS011;1444;49.166;7.312;2023-07-02T13:14:37;55.03;;;24.93;;
2872;SDS011;1444;49.166;7.312;2023-07-02T13:17:04;58.43;;;27.60;;
2872;SDS011;1444;49.166;7.312;2023-07-02T13:19:31;53.57;;;23.43;;
2872;SDS011;1444;49.166;7.312;2023-07-02T13:21:59;57.87;;;27.03;;
2872;SDS011;1444;49.166;7.312;2023-07-02T13:24:28;59.03;;;27.70;;
2872;SDS011;1444;49.166;7.312;2023-07-02T13:26:59;75.50;;;29.23;;
2872;SDS011;1444;49.166;7.312;2023-07-02T13:29:26;47.20;;;23.23;;
2872;SDS011;1444;49.166;7.312;2023-07-02T13:31:53;73.77;;;29.33;;
2872;SDS011;1444;49.166;7.312;2023-07-02T13:34:20;72.80;;;28.10;;
2872;SDS011;1444;49.166;7.312;2023-07-02T13:36:47;52.23;;;25.87;;
2872;SDS011;1444;49.166;7.312;2023-07-02T13:39:14;53.70;;;23.90;;
2872;SDS011;1444;49.166;7.312;2023-07-02T13:41:42;58.07;;;23.43;;
2872;SDS011;1444;49.166;7.312;2023-07-02T13:44:09;56.43;;;25.37;;
2872;SDS011;1444;49.166;7.312;2023-07-02T13:46:35;49.90;;;24.90;;
2872;SDS011;1444;49.166;7.312;2023-07-02T13:49:02;66.27;;;28.40;;
2872;SDS011;1444;49.166;7.312;2023-07-02T13:51:29;52.43;;;26.27;;
2872;SDS011;1444;49.166;7.312;2023-07-02T13:53:56;70.63;;;29.50;;
2872;SDS011;1444;49.166;7.312;2023-07-02T13:56:23;62.37;;;26.30;;
2872;SDS011;1444;49.166;7.312;2023-07-02T13:59:04;50.77;;;23.83;;
2872;SDS011;1444;49.166;7.312;2023-07-02T14:01:31;48.73;;;25.43;;
2872;SDS011;1444;49.166;7.312;2023-07-02T14:03:59;65.93;;;26.43;;
2872;SDS011;1444;49.166;7.312;2023-07-02T14:06:26;51.70;;;25.53;;
2872;SDS011;1444;49.166;7.312;2023-07-02T14:08:53;59.40;;;25.30;;
2872;SDS011;1444;49.166;7.312;2023-07-02T14:11:20;41.30;;;20.90;;
2872;SDS011;1444;49.166;7.312;2023-07-02T14:13:47;48.83;;;23.27;;
2872;SDS011;1444;49.166;7.312;2023-07-02T14:16:16;45.40;;;25.57;;
2872;SDS011;1444;49.166;7.312;2023-07-02T14:18:43;36.97;;;20.30;;
2872;SDS011;1444;49.166;7.312;2023-07-02T14:21:09;42.07;;;22.40;;
2872;SDS011;1444;49.166;7.312;2023-07-02T14:23:36;47.93;;;23.00;;
2872;SDS011;1444;49.166;7.312;2023-07-02T14:26:03;63.50;;;25.57;;
2872;SDS011;1444;49.166;7.312;2023-07-02T14:28:30;48.00;;;24.10;;
2872;SDS011;1444;49.166;7.312;2023-07-02T14:30:57;66.37;;;23.60;;
2872;SDS011;1444;49.166;7.312;2023-07-02T14:33:26;46.30;;;21.87;;
2872;SDS011;1444;49.166;7.312;2023-07-02T14:35:54;73.93;;;29.23;;
2872;SDS011;1444;49.166;7.312;2023-07-02T14:38:21;41.57;;;20.57;;
2872;SDS011;1444;49.166;7.312;2023-07-02T14:40:48;50.73;;;22.73;;
2872;SDS011;1444;49.166;7.312;2023-07-02T14:43:15;44.57;;;21.77;;
2872;SDS011;1444;49.166;7.312;2023-07-02T14:45:43;44.50;;;23.10;;
2872;SDS011;1444;49.166;7.312;2023-07-02T14:48:10;48.93;;;23.67;;
2872;SDS011;1444;49.166;7.312;2023-07-02T14:50:42;37.60;;;19.43;;
2872;SDS011;1444;49.166;7.312;2023-07-02T14:53:10;36.63;;;19.50;;
2872;SDS011;1444;49.166;7.312;2023-07-02T14:55:37;51.67;;;24.70;;
2872;SDS011;1444;49.166;7.312;2023-07-02T14:58:05;61.43;;;27.50;;